KHEI

Details ICAO KHEI
Name HETTINGER MUNI
Region United States
Timezone America/Denver (UTC-6.0)
Plans Departing 1
Arriving 0
Stats Elevation 2,705 ft / 824 m (AMSL)
Location 46.015250° -102.655486°
Runways 2
Magnetic Variation 7.220° E
Sunrise 2018-05-24 11:10:34 UTC / 2018-05-24 05:10:34 Local
Sunset 2018-05-25 02:27:16 UTC / 2018-05-24 20:27:16 Local
Advertisement - Login to hide

Runways

ID Width Length Bearing (true) Bearing (mag) Surface Threshold Offset Overrun Length
12 75 ft / 23 m 4,583 ft / 1,397 m 135.04° 127.82° Asphalt 0 ft / 0 m 0 ft / 0 m
17 100 ft / 30 m 1,892 ft / 577 m 178.74° 171.52° Grass 0 ft / 0 m 0 ft / 0 m
30 75 ft / 23 m 4,583 ft / 1,397 m 315.05° 307.83° Asphalt 0 ft / 0 m 0 ft / 0 m
35 100 ft / 30 m 1,892 ft / 577 m 358.74° 351.52° Grass 0 ft / 0 m 0 ft / 0 m

Map

Weather


0- 5 10 15 20 25 30 35+ Temperature / ° C

Clouds and Precipitation
Forecast for 2018-05-24 18:00 UTC. Updated an hour ago

Ground ~20,000 ft ~40,000 ft Winds

METAR

KHEI 241753Z AUTO 26015G26KT 10SM FEW036 24/12 A2987 RMK AO2 PK WND 27026/1746 SLP097 T02390117 10244 20117 53004

TAF

Not found

Frequencies

Recorded 119.92 MHz ASOS
Unicom 122.80 MHz CTAF/UNICOM
Warning: Do not use this data for real-world aviation or navigation. No guarantee of current accuracy is given.